Time;durP1;ratioP1;P1;durP2;ratioP2;P2;SDS_P1;SDS_P2;PMS_P1;PMS_P2;Temp;Humidity;BMP_temperature;BMP_pressure;BME280_temperature;BME280_humidity;BME280_pressure;Samples;Min_cycle;Max_cycle;Signal;HPM_P1;HPM_P2
2021/12/16 00:09:44;;;;;;;9.27;4.70;;;10.00;99.90;;;;;;5022459;28;20205;-86
2021/12/16 00:29:13;;;;;;;10.53;4.80;;;10.00;99.90;;;;;;5012914;28;20273;-84
2021/12/16 00:31:49;;;;;;;6.30;4.60;;;10.00;99.90;;;;;;5014862;28;20196;-91
2021/12/16 00:34:17;;;;;;;13.50;4.93;;;10.10;99.90;;;;;;5033536;28;20202;-85
2021/12/16 00:36:46;;;;;;;13.33;5.67;;;10.10;99.90;;;;;;5055403;23;20249;-89
2021/12/16 00:39:17;;;;;;;8.40;4.23;;;10.10;99.90;;;;;;5053872;28;20206;-88
2021/12/16 00:41:47;;;;;;;11.10;5.00;;;10.10;99.90;;;;;;5049322;28;20209;-96
2021/12/16 00:44:34;;;;;;;8.90;4.53;;;10.10;99.90;;;;;;5033804;28;20506;-95
2021/12/16 00:47:24;;;;;;;10.87;5.37;;;10.10;99.90;;;;;;5033645;28;20511;-92
2021/12/16 00:49:52;;;;;;;8.20;4.07;;;10.10;99.90;;;;;;5032818;28;20206;-82
2021/12/16 00:55:19;;;;;;;12.60;5.07;;;10.10;99.90;;;;;;5033539;28;20201;-93
2021/12/16 00:57:49;;;;;;;10.17;4.70;;;10.10;99.90;;;;;;5032984;28;20496;-90
2021/12/16 01:00:18;;;;;;;8.97;4.67;;;10.00;99.90;;;;;;5033318;28;20555;-82
2021/12/16 01:03:01;;;;;;;11.33;5.53;;;9.90;99.90;;;;;;5031923;28;20214;-89
2021/12/16 01:36:07;;;;;;;12.97;5.83;;;10.20;99.90;;;;;;5052475;28;20351;-94
2021/12/16 01:39:07;;;;;;;14.17;6.70;;;10.20;99.90;;;;;;5052010;28;20202;-90
2021/12/16 01:49:55;;;;;;;16.77;7.13;;;10.10;99.90;;;;;;5048887;28;20208;-84
2021/12/16 01:52:48;;;;;;;15.33;7.30;;;10.00;99.90;;;;;;5054623;28;20292;-88
2021/12/16 01:55:23;;;;;;;14.53;7.40;;;10.00;99.90;;;;;;5052198;28;20202;-82
2021/12/16 01:57:54;;;;;;;13.07;7.13;;;10.00;99.90;;;;;;5051625;28;20288;-84
2021/12/16 02:00:28;;;;;;;18.53;8.20;;;10.00;99.90;;;;;;5055753;28;20196;-93
2021/12/16 02:03:00;;;;;;;16.30;8.07;;;9.90;99.90;;;;;;5071543;28;20567;-86
2021/12/16 02:05:52;;;;;;;16.00;7.77;;;10.00;99.90;;;;;;5071447;28;20221;-86
2021/12/16 02:08:23;;;;;;;14.73;8.33;;;9.90;99.90;;;;;;5071109;28;20205;-90
2021/12/16 02:11:06;;;;;;;15.17;7.83;;;9.90;99.90;;;;;;5071503;28;20208;-90
2021/12/16 02:27:44;;;;;;;16.80;8.80;;;9.80;99.90;;;;;;5051675;28;20271;-88
2021/12/16 02:33:33;;;;;;;21.93;9.63;;;9.70;99.90;;;;;;5044468;28;20725;-94
2021/12/16 02:36:02;;;;;;;20.43;8.90;;;9.80;99.90;;;;;;5050964;28;20237;-83
2021/12/16 02:38:34;;;;;;;17.90;9.13;;;9.70;99.90;;;;;;5050343;28;20538;-87
2021/12/16 02:41:01;;;;;;;16.60;9.03;;;9.80;99.90;;;;;;5051628;28;20233;-94
2021/12/16 02:43:55;;;;;;;19.87;9.17;;;9.70;99.90;;;;;;5070345;28;20217;-87
2021/12/16 02:49:06;;;;;;;17.00;10.50;;;9.70;99.90;;;;;;5052255;28;20197;-91
2021/12/16 02:51:33;;;;;;;19.63;10.17;;;9.80;99.90;;;;;;5051408;28;20213;-93
2021/12/16 02:54:05;;;;;;;21.03;9.23;;;9.80;99.90;;;;;;5059908;28;20212;-94
2021/12/16 02:56:33;;;;;;;23.77;9.73;;;9.80;99.90;;;;;;5074935;28;20197;-90
2021/12/16 02:59:00;;;;;;;18.83;9.57;;;9.80;99.90;;;;;;5070135;28;20237;-94
2021/12/16 03:01:30;;;;;;;17.83;9.27;;;9.70;99.90;;;;;;5055593;28;20190;-91
2021/12/16 03:03:59;;;;;;;22.93;10.63;;;9.70;99.90;;;;;;5055721;28;20308;-92
2021/12/16 03:06:29;;;;;;;20.80;11.33;;;9.70;99.90;;;;;;5057918;28;20253;-87
2021/12/16 03:08:56;;;;;;;21.73;10.73;;;9.80;99.90;;;;;;5075381;28;20205;-92
2021/12/16 03:11:33;;;;;;;21.43;10.77;;;9.80;99.90;;;;;;5068082;28;20198;-89
2021/12/16 03:14:23;;;;;;;21.90;10.27;;;9.80;99.90;;;;;;5056000;28;20200;-92
2021/12/16 03:17:04;;;;;;;22.43;11.60;;;9.80;99.90;;;;;;5055262;28;20235;-89
2021/12/16 03:19:43;;;;;;;21.37;10.67;;;9.70;99.90;;;;;;5058445;28;20292;-88
2021/12/16 03:22:20;;;;;;;19.17;10.30;;;9.70;99.90;;;;;;5058667;28;20638;-93
2021/12/16 03:25:08;;;;;;;19.53;9.63;;;9.60;99.90;;;;;;5055699;28;20594;-94
2021/12/16 03:28:09;;;;;;;23.87;11.70;;;9.60;99.90;;;;;;5054837;28;20212;-90
2021/12/16 03:30:56;;;;;;;18.40;10.60;;;9.60;99.90;;;;;;5054358;28;20340;-84
2021/12/16 03:33:48;;;;;;;21.77;10.63;;;9.60;99.90;;;;;;5055007;28;20205;-92
2021/12/16 03:36:26;;;;;;;19.30;10.03;;;9.60;99.90;;;;;;5054751;28;20233;-89
2021/12/16 03:38:57;;;;;;;19.20;10.07;;;9.50;99.90;;;;;;5054388;28;20512;-92
2021/12/16 03:41:25;;;;;;;20.63;9.60;;;9.50;99.90;;;;;;5055177;28;20206;-94
2021/12/16 03:43:56;;;;;;;22.30;10.43;;;9.40;99.90;;;;;;5054166;28;20194;-91
2021/12/16 03:46:26;;;;;;;26.10;11.83;;;9.40;99.90;;;;;;5067097;28;20229;-85
2021/12/16 03:48:58;;;;;;;15.17;9.47;;;9.30;99.90;;;;;;5074287;28;20190;-86
2021/12/16 03:51:30;;;;;;;17.60;10.33;;;9.30;99.90;;;;;;5073538;28;20217;-86
2021/12/16 03:54:01;;;;;;;19.93;9.97;;;9.20;99.90;;;;;;5073663;28;20227;-83
2021/12/16 03:56:30;;;;;;;21.97;10.73;;;9.20;99.90;;;;;;5073712;28;20780;-85
2021/12/16 03:58:58;;;;;;;27.97;11.97;;;9.20;99.90;;;;;;5073007;28;20209;-83
2021/12/16 04:01:30;;;;;;;19.43;10.83;;;9.20;99.90;;;;;;5053760;28;20209;-84
2021/12/16 04:04:00;;;;;;;30.47;12.70;;;9.20;99.90;;;;;;5053101;28;20206;-89
2021/12/16 04:06:30;;;;;;;21.33;11.53;;;9.20;99.90;;;;;;5053501;28;20268;-93
2021/12/16 04:08:58;;;;;;;19.90;11.47;;;9.30;99.90;;;;;;5053665;28;20201;-91
2021/12/16 04:11:32;;;;;;;24.63;12.60;;;9.30;99.90;;;;;;5054169;28;20259;-86
2021/12/16 04:14:02;;;;;;;26.33;14.67;;;9.30;99.90;;;;;;5069707;28;20219;-88
2021/12/16 04:16:32;;;;;;;26.87;14.50;;;9.30;99.90;;;;;;5068481;28;20197;-87
2021/12/16 04:19:01;;;;;;;25.80;13.70;;;9.30;99.90;;;;;;5049249;28;20199;-87
2021/12/16 04:21:29;;;;;;;23.13;13.70;;;9.30;99.90;;;;;;5054022;28;20217;-92
2021/12/16 04:23:57;;;;;;;24.57;13.83;;;9.30;99.90;;;;;;5054437;28;20209;-92
2021/12/16 04:26:28;;;;;;;22.47;12.83;;;9.30;99.90;;;;;;5054434;28;20544;-92
2021/12/16 04:28:55;;;;;;;29.30;14.03;;;9.30;99.90;;;;;;5074056;28;20198;-92
2021/12/16 04:31:24;;;;;;;23.43;11.77;;;9.20;99.90;;;;;;5074324;28;20229;-90
2021/12/16 04:33:52;;;;;;;29.40;13.83;;;9.20;99.90;;;;;;5074520;28;20209;-92
2021/12/16 04:36:18;;;;;;;20.87;11.97;;;9.10;99.90;;;;;;5061001;28;20238;-90
2021/12/16 04:38:47;;;;;;;25.53;11.73;;;9.10;99.90;;;;;;5054215;28;20210;-89
2021/12/16 04:41:16;;;;;;;20.40;12.07;;;9.20;99.90;;;;;;5054322;28;20206;-91
2021/12/16 04:43:50;;;;;;;22.57;10.10;;;9.20;99.90;;;;;;5053721;28;20194;-91
2021/12/16 04:46:20;;;;;;;22.97;10.73;;;9.20;99.90;;;;;;5052391;28;20236;-86
2021/12/16 04:48:52;;;;;;;21.70;10.30;;;9.30;99.90;;;;;;5052653;28;20210;-83
2021/12/16 04:51:21;;;;;;;18.93;9.43;;;9.20;99.90;;;;;;5053489;28;20198;-89
2021/12/16 04:53:48;;;;;;;24.33;10.90;;;9.10;99.90;;;;;;5055930;28;20202;-88
2021/12/16 04:56:17;;;;;;;21.30;11.90;;;9.10;99.90;;;;;;5060184;28;20217;-88
2021/12/16 04:58:47;;;;;;;21.27;10.93;;;9.10;99.90;;;;;;5053537;28;20251;-89
2021/12/16 05:01:15;;;;;;;24.33;11.97;;;9.20;99.90;;;;;;5052998;28;20190;-87
2021/12/16 05:03:43;;;;;;;21.13;11.30;;;9.30;99.90;;;;;;5053302;28;20190;-85
2021/12/16 05:06:12;;;;;;;22.87;10.80;;;9.40;99.90;;;;;;5068724;28;20225;-87
2021/12/16 05:08:40;;;;;;;22.20;12.73;;;9.40;99.90;;;;;;5073018;28;20201;-90
2021/12/16 05:11:12;;;;;;;23.17;12.43;;;9.40;99.90;;;;;;5059334;28;20206;-85
2021/12/16 05:13:39;;;;;;;27.77;12.73;;;9.40;99.90;;;;;;5052846;28;20213;-87
2021/12/16 05:16:07;;;;;;;24.33;12.70;;;9.40;99.90;;;;;;5052757;28;20202;-88
2021/12/16 05:18:37;;;;;;;24.30;13.13;;;9.40;99.90;;;;;;5053130;28;20203;-88
2021/12/16 05:21:08;;;;;;;24.93;11.20;;;9.30;99.90;;;;;;5053414;28;20247;-87
2021/12/16 05:26:32;;;;;;;24.70;11.43;;;9.30;99.90;;;;;;5030488;28;20258;-85
2021/12/16 05:28:59;;;;;;;25.40;12.47;;;9.30;99.90;;;;;;5050129;28;20205;-89
2021/12/16 05:31:28;;;;;;;24.33;13.70;;;9.30;99.90;;;;;;5072274;28;20205;-89
2021/12/16 05:33:57;;;;;;;28.13;15.40;;;9.30;99.90;;;;;;5072944;28;20201;-89
2021/12/16 05:36:25;;;;;;;23.77;13.57;;;9.30;99.90;;;;;;5065787;28;20237;-86
2021/12/16 05:38:53;;;;;;;29.70;14.67;;;9.20;99.90;;;;;;5051861;28;20205;-86
2021/12/16 05:41:22;;;;;;;26.70;14.53;;;9.20;99.90;;;;;;5063501;28;20562;-85
2021/12/16 05:43:49;;;;;;;22.50;12.00;;;9.20;99.90;;;;;;5072545;28;20224;-88
2021/12/16 05:46:18;;;;;;;25.83;11.00;;;9.20;99.90;;;;;;5072420;28;20688;-89
2021/12/16 05:48:47;;;;;;;20.60;10.50;;;9.10;99.90;;;;;;5071321;28;20201;-87
2021/12/16 05:51:17;;;;;;;23.40;12.93;;;9.10;99.90;;;;;;5068601;28;20314;-88
2021/12/16 05:53:45;;;;;;;21.27;12.33;;;9.00;99.90;;;;;;5072892;28;20197;-90
2021/12/16 05:56:14;;;;;;;26.47;12.73;;;8.90;99.90;;;;;;5072464;28;20212;-88
2021/12/16 05:58:41;;;;;;;26.13;13.03;;;8.90;99.90;;;;;;5072943;28;20212;-90
2021/12/16 06:01:10;;;;;;;25.33;13.87;;;8.90;99.90;;;;;;5072391;28;20204;-90
2021/12/16 06:03:37;;;;;;;21.20;12.07;;;8.90;99.90;;;;;;5073185;28;20212;-89
2021/12/16 06:06:04;;;;;;;19.20;10.13;;;8.90;99.90;;;;;;5071866;28;20236;-90
2021/12/16 06:08:31;;;;;;;22.00;10.73;;;8.90;99.90;;;;;;5072425;28;20801;-88
2021/12/16 06:11:17;;;;;;;23.87;12.03;;;8.90;99.90;;;;;;5072408;28;20193;-86
2021/12/16 06:13:58;;;;;;;21.17;11.67;;;9.00;99.90;;;;;;5051061;28;20251;-86
2021/12/16 06:27:26;;;;;;;24.40;11.67;;;8.90;99.90;;;;;;5054062;28;20316;-89
2021/12/16 06:29:55;;;;;;;22.00;11.93;;;9.00;99.90;;;;;;5056400;28;20507;-89
2021/12/16 06:32:22;;;;;;;22.07;11.83;;;9.00;99.90;;;;;;5056518;28;20294;-88
2021/12/16 06:34:50;;;;;;;23.93;12.73;;;8.90;99.90;;;;;;5070238;28;20212;-88
2021/12/16 06:37:17;;;;;;;25.30;13.10;;;9.00;99.90;;;;;;5077106;28;20189;-88
2021/12/16 06:39:44;;;;;;;33.43;14.87;;;9.00;99.90;;;;;;5076713;28;20204;-86
2021/12/16 06:42:11;;;;;;;27.03;13.70;;;9.00;99.90;;;;;;5077192;28;20200;-85
2021/12/16 06:44:44;;;;;;;26.47;14.70;;;9.00;99.90;;;;;;5077037;28;20205;-87
2021/12/16 06:47:18;;;;;;;30.67;16.17;;;8.90;99.90;;;;;;5056843;28;20228;-89
2021/12/16 06:49:47;;;;;;;27.13;16.43;;;8.90;99.90;;;;;;5055365;28;20594;-89
2021/12/16 06:52:18;;;;;;;29.97;16.83;;;8.80;99.90;;;;;;5055645;28;20288;-87
2021/12/16 06:55:01;;;;;;;28.93;16.87;;;8.80;99.90;;;;;;5055358;28;20198;-87
2021/12/16 06:57:38;;;;;;;33.60;18.80;;;8.70;99.90;;;;;;5055303;28;20840;-87
2021/12/16 07:00:12;;;;;;;35.30;17.13;;;8.70;99.90;;;;;;5055744;28;20619;-87
2021/12/16 07:02:55;;;;;;;24.60;13.97;;;8.70;99.90;;;;;;5055117;28;20202;-89
2021/12/16 07:05:24;;;;;;;28.20;13.27;;;8.70;99.90;;;;;;5055335;28;20225;-89
2021/12/16 07:07:51;;;;;;;21.63;10.83;;;8.70;99.90;;;;;;5054553;28;20218;-89
2021/12/16 07:10:20;;;;;;;21.77;10.57;;;8.70;99.90;;;;;;5060549;23;20257;-86
2021/12/16 07:12:49;;;;;;;16.40;9.40;;;8.70;99.90;;;;;;5046826;28;20217;-88
2021/12/16 07:15:21;;;;;;;21.07;9.67;;;8.60;99.90;;;;;;5034021;28;20253;-89
2021/12/16 07:17:51;;;;;;;22.63;10.13;;;8.60;99.90;;;;;;5033334;28;20198;-87
2021/12/16 07:20:21;;;;;;;20.97;9.93;;;8.70;99.90;;;;;;5035215;28;20214;-89
2021/12/16 07:22:48;;;;;;;18.03;9.23;;;8.60;99.90;;;;;;5031379;28;20200;-87
2021/12/16 07:25:15;;;;;;;21.87;9.80;;;8.60;99.90;;;;;;5034360;28;20201;-88
2021/12/16 07:27:43;;;;;;;18.70;9.60;;;8.50;99.90;;;;;;5035390;28;20230;-89
2021/12/16 07:30:14;;;;;;;17.80;9.17;;;8.50;99.90;;;;;;5051371;28;20244;-88
2021/12/16 07:32:41;;;;;;;17.43;9.03;;;8.40;99.90;;;;;;5054888;28;20201;-89
2021/12/16 07:35:14;;;;;;;13.90;8.57;;;8.40;99.90;;;;;;5054477;28;20240;-85
2021/12/16 07:37:41;;;;;;;19.00;9.30;;;8.40;99.90;;;;;;5054420;28;20833;-86
2021/12/16 07:40:11;;;;;;;19.83;9.77;;;8.30;99.90;;;;;;5049040;28;20209;-88
2021/12/16 07:42:46;;;;;;;13.23;9.63;;;8.30;99.90;;;;;;5033972;28;20191;-85
2021/12/16 07:45:16;;;;;;;13.97;8.83;;;8.20;99.90;;;;;;5045957;28;20213;-88
2021/12/16 07:47:44;;;;;;;12.77;8.67;;;8.10;99.90;;;;;;5054081;28;20346;-88
2021/12/16 07:50:13;;;;;;;14.10;8.17;;;8.00;99.90;;;;;;5053252;28;20209;-87
2021/12/16 07:52:41;;;;;;;10.57;7.90;;;7.90;99.90;;;;;;5033951;28;20205;-86
2021/12/16 07:55:09;;;;;;;14.70;7.93;;;7.90;99.90;;;;;;5034708;28;20249;-87
2021/12/16 07:57:36;;;;;;;15.90;10.10;;;7.80;99.90;;;;;;5034657;28;20203;-86
2021/12/16 08:00:05;;;;;;;15.07;10.40;;;7.70;99.90;;;;;;5034179;28;20293;-88
2021/12/16 08:03:11;;;;;;;14.30;8.20;;;7.70;99.90;;;;;;5001794;28;20644;-89
2021/12/16 08:05:46;;;;;;;16.00;10.17;;;7.60;99.90;;;;;;5042731;28;20210;-89
2021/12/16 08:08:14;;;;;;;13.10;8.50;;;7.50;99.90;;;;;;5034047;28;20232;-89
2021/12/16 08:10:42;;;;;;;13.17;9.37;;;7.50;99.90;;;;;;5045187;28;20249;-88
2021/12/16 08:13:08;;;;;;;16.67;10.33;;;7.50;99.90;;;;;;5054298;28;20186;-88
2021/12/16 08:15:35;;;;;;;32.87;12.87;;;7.40;99.90;;;;;;5054347;28;20658;-88
2021/12/16 08:18:03;;;;;;;29.17;14.30;;;7.40;99.90;;;;;;5037322;28;20229;-87
2021/12/16 08:20:32;;;;;;;22.27;10.80;;;7.40;99.90;;;;;;5031876;28;20195;-87
2021/12/16 08:23:00;;;;;;;19.20;10.03;;;7.30;99.90;;;;;;5035178;28;20281;-89
2021/12/16 08:25:29;;;;;;;17.63;9.47;;;7.30;99.90;;;;;;5033882;28;20253;-87
2021/12/16 08:27:57;;;;;;;11.90;8.83;;;7.30;99.90;;;;;;5034072;28;20218;-87
2021/12/16 08:30:28;;;;;;;14.60;9.53;;;7.30;99.90;;;;;;5034096;28;20592;-90
2021/12/16 08:32:55;;;;;;;18.27;11.70;;;7.30;99.90;;;;;;5034169;28;20293;-88
2021/12/16 08:35:22;;;;;;;16.67;9.27;;;7.30;99.90;;;;;;5047249;28;20216;-88
2021/12/16 08:37:49;;;;;;;15.33;10.27;;;7.30;99.90;;;;;;5053745;28;20495;-87
2021/12/16 08:40:22;;;;;;;12.73;9.73;;;7.30;99.90;;;;;;5053596;28;20221;-87
2021/12/16 08:42:49;;;;;;;20.47;12.03;;;7.20;99.90;;;;;;5052431;28;20213;-86
2021/12/16 08:45:20;;;;;;;21.93;12.37;;;7.30;99.90;;;;;;5042506;28;20501;-86
2021/12/16 08:47:47;;;;;;;18.70;10.80;;;7.30;99.90;;;;;;5033210;28;20229;-86
2021/12/16 08:50:19;;;;;;;23.27;11.93;;;7.30;99.90;;;;;;5032875;28;20198;-87
2021/12/16 08:52:46;;;;;;;19.73;11.60;;;7.30;99.90;;;;;;5033036;28;20603;-87
2021/12/16 08:55:15;;;;;;;19.97;12.37;;;7.20;99.90;;;;;;5028906;28;20207;-87
2021/12/16 08:57:44;;;;;;;16.57;10.93;;;7.30;99.90;;;;;;5033058;28;20197;-88
2021/12/16 09:00:15;;;;;;;15.07;10.33;;;7.30;99.90;;;;;;5033266;28;20214;-88
2021/12/16 09:02:42;;;;;;;16.93;10.87;;;7.30;99.90;;;;;;5032857;28;20501;-89
2021/12/16 09:05:09;;;;;;;21.10;15.30;;;7.30;99.90;;;;;;5033061;28;20198;-88
2021/12/16 09:07:36;;;;;;;22.90;20.33;;;7.30;99.90;;;;;;5030550;28;20226;-84
2021/12/16 09:10:07;;;;;;;38.37;34.47;;;7.30;99.90;;;;;;5031473;28;20242;-85
2021/12/16 09:12:50;;;;;;;31.67;28.23;;;7.40;99.90;;;;;;5032685;28;20198;-85
2021/12/16 09:15:19;;;;;;;27.97;20.23;;;7.40;99.90;;;;;;5032968;28;20218;-86
2021/12/16 09:17:46;;;;;;;25.10;16.87;;;7.40;99.90;;;;;;5032634;28;20594;-86
2021/12/16 09:20:14;;;;;;;22.50;14.53;;;7.40;99.90;;;;;;5033112;28;20213;-87
2021/12/16 09:22:41;;;;;;;20.87;13.10;;;7.50;99.90;;;;;;5032501;28;20241;-86
2021/12/16 09:25:08;;;;;;;17.07;12.13;;;7.50;99.90;;;;;;5032641;28;20218;-87
2021/12/16 09:27:36;;;;;;;19.27;12.27;;;7.60;99.90;;;;;;5032527;28;20812;-88
2021/12/16 09:30:05;;;;;;;19.67;12.40;;;7.70;99.90;;;;;;5031488;28;20669;-87
2021/12/16 09:32:33;;;;;;;22.30;11.97;;;7.80;99.90;;;;;;5032188;28;20230;-88
2021/12/16 09:35:01;;;;;;;21.23;11.60;;;7.80;99.90;;;;;;5032481;28;20206;-86
2021/12/16 09:37:29;;;;;;;21.80;11.50;;;7.90;99.90;;;;;;5031613;28;20217;-87
2021/12/16 09:39:56;;;;;;;22.40;11.00;;;8.00;99.90;;;;;;5032383;28;20257;-85
2021/12/16 09:42:26;;;;;;;26.77;11.90;;;8.10;99.90;;;;;;5031946;28;20202;-86
2021/12/16 09:44:53;;;;;;;23.33;12.17;;;8.30;99.90;;;;;;5031401;28;20209;-85
2021/12/16 09:47:21;;;;;;;21.03;12.10;;;8.40;99.90;;;;;;5032664;28;20228;-86
2021/12/16 09:49:49;;;;;;;21.63;11.60;;;8.50;99.90;;;;;;5032133;28;20206;-86
2021/12/16 09:52:17;;;;;;;20.17;11.33;;;8.60;99.90;;;;;;5031845;28;20191;-87
2021/12/16 09:54:46;;;;;;;19.17;10.47;;;8.70;99.90;;;;;;5032259;28;20206;-87
2021/12/16 09:57:15;;;;;;;19.53;11.27;;;8.80;99.90;;;;;;5032299;28;20205;-88
2021/12/16 09:59:42;;;;;;;21.97;11.03;;;8.80;99.90;;;;;;5031649;28;20218;-87
2021/12/16 10:02:12;;;;;;;21.33;12.10;;;8.90;99.90;;;;;;5031197;28;20217;-87
2021/12/16 10:04:40;;;;;;;19.70;11.27;;;8.90;99.90;;;;;;5031565;28;20209;-86
2021/12/16 10:07:14;;;;;;;28.30;11.83;;;9.10;99.90;;;;;;5031922;28;20207;-85
2021/12/16 10:09:42;;;;;;;18.37;10.87;;;9.10;99.90;;;;;;5032077;28;20290;-87
2021/12/16 10:12:13;;;;;;;26.07;10.93;;;9.20;99.90;;;;;;5032028;28;20222;-87
2021/12/16 10:15:03;;;;;;;21.20;11.23;;;9.20;99.90;;;;;;5034655;28;20213;-86
2021/12/16 10:17:32;;;;;;;23.80;11.23;;;9.30;99.90;;;;;;5030165;28;20907;-86
2021/12/16 10:20:04;;;;;;;24.33;11.13;;;9.40;99.90;;;;;;5018969;28;20228;-86
2021/12/16 10:22:39;;;;;;;22.13;11.33;;;9.50;99.90;;;;;;5033564;28;20206;-85
2021/12/16 10:25:28;;;;;;;27.07;11.40;;;9.50;99.90;;;;;;5037439;28;20230;-84
2021/12/16 10:28:12;;;;;;;24.60;11.80;;;9.60;99.90;;;;;;5035041;28;20721;-85
2021/12/16 10:30:48;;;;;;;24.97;12.43;;;9.70;99.90;;;;;;5036046;28;20225;-87
2021/12/16 10:33:20;;;;;;;26.77;11.53;;;9.70;99.90;;;;;;5034541;28;20201;-87
2021/12/16 10:35:48;;;;;;;25.70;11.60;;;9.70;99.90;;;;;;5040207;28;20203;-87
2021/12/16 10:38:19;;;;;;;24.20;10.73;;;9.70;99.90;;;;;;5039594;28;20218;-87
2021/12/16 10:40:50;;;;;;;29.47;11.63;;;9.80;99.90;;;;;;5045609;28;20198;-87
2021/12/16 10:43:25;;;;;;;21.47;11.53;;;9.80;99.90;;;;;;5034092;28;20560;-88
2021/12/16 10:45:57;;;;;;;24.53;12.00;;;9.80;99.90;;;;;;5042303;28;20204;-88
2021/12/16 10:48:28;;;;;;;31.63;11.37;;;9.90;99.90;;;;;;5038434;28;20230;-89
2021/12/16 10:51:16;;;;;;;21.60;11.83;;;9.90;99.90;;;;;;5044116;28;20209;-89
2021/12/16 10:54:11;;;;;;;30.27;12.10;;;9.90;99.90;;;;;;5038057;28;20687;-87
2021/12/16 10:56:45;;;;;;;27.93;13.10;;;10.00;99.90;;;;;;5030730;28;20214;-86
2021/12/16 10:59:16;;;;;;;25.33;12.80;;;10.00;99.90;;;;;;5031371;28;20198;-84
2021/12/16 11:01:56;;;;;;;26.97;12.50;;;10.10;99.90;;;;;;5031470;28;20187;-88
2021/12/16 11:04:28;;;;;;;22.40;11.73;;;10.10;99.90;;;;;;5031621;28;20205;-87
2021/12/16 11:07:01;;;;;;;30.57;12.80;;;10.10;99.90;;;;;;5029490;28;20210;-88
2021/12/16 11:09:37;;;;;;;23.27;12.50;;;10.20;99.90;;;;;;5030556;28;20656;-87
2021/12/16 11:12:11;;;;;;;29.50;13.10;;;10.10;99.90;;;;;;5034953;28;20209;-85
2021/12/16 11:14:41;;;;;;;22.67;12.33;;;10.10;99.90;;;;;;5054167;28;20201;-86
2021/12/16 11:17:15;;;;;;;28.57;12.63;;;10.10;99.90;;;;;;5051010;28;20208;-85
2021/12/16 11:19:48;;;;;;;27.67;13.40;;;10.10;99.90;;;;;;5048504;28;20193;-84
2021/12/16 11:22:17;;;;;;;32.97;14.03;;;10.20;99.90;;;;;;5042233;28;20198;-84
2021/12/16 11:24:46;;;;;;;26.20;14.63;;;10.20;99.90;;;;;;5038027;28;20206;-85
2021/12/16 11:27:27;;;;;;;36.27;18.13;;;10.20;99.90;;;;;;5040719;28;20205;-84
2021/12/16 11:29:54;;;;;;;29.80;19.03;;;10.10;99.90;;;;;;5045086;28;20230;-84
2021/12/16 11:32:42;;;;;;;26.87;14.73;;;10.10;99.90;;;;;;5045643;28;20213;-83
2021/12/16 11:35:40;;;;;;;24.17;16.07;;;10.20;99.90;;;;;;5042824;28;20190;-83
2021/12/16 11:38:13;;;;;;;29.20;17.03;;;10.20;99.90;;;;;;5040084;28;20210;-83
2021/12/16 11:41:11;;;;;;;31.33;17.57;;;10.20;99.90;;;;;;5043962;28;20252;-85
2021/12/16 11:43:57;;;;;;;34.07;15.57;;;10.30;99.90;;;;;;5027326;28;20213;-84
2021/12/16 11:46:28;;;;;;;24.70;14.93;;;10.30;99.90;;;;;;5029797;28;20613;-85
2021/12/16 11:48:57;;;;;;;28.37;14.97;;;10.20;99.90;;;;;;5038761;28;20226;-84
2021/12/16 11:51:29;;;;;;;26.10;14.73;;;10.20;99.90;;;;;;5040221;28;20229;-83
2021/12/16 11:53:57;;;;;;;27.27;15.63;;;10.20;99.90;;;;;;5035745;28;20214;-85
2021/12/16 11:56:38;;;;;;;24.23;14.03;;;10.30;99.90;;;;;;5033066;28;20855;-86
2021/12/16 11:59:06;;;;;;;32.63;15.53;;;10.30;99.90;;;;;;5029905;28;20191;-85
2021/12/16 12:01:33;;;;;;;26.20;14.30;;;10.30;99.90;;;;;;5043456;28;20502;-88
2021/12/16 12:04:05;;;;;;;20.30;11.97;;;10.30;99.90;;;;;;5053629;28;20205;-89
2021/12/16 12:06:33;;;;;;;25.10;14.77;;;10.30;99.90;;;;;;5052455;28;20603;-84
2021/12/16 12:09:02;;;;;;;26.10;12.27;;;10.30;99.90;;;;;;5042592;28;20230;-87
2021/12/16 12:11:31;;;;;;;22.33;12.07;;;10.30;99.90;;;;;;5032068;28;20222;-85
2021/12/16 12:14:02;;;;;;;20.93;11.93;;;10.30;99.90;;;;;;5031829;28;20209;-84
2021/12/16 12:16:34;;;;;;;22.20;12.73;;;10.30;99.90;;;;;;5032273;28;20202;-85
2021/12/16 12:19:08;;;;;;;22.00;11.23;;;10.30;99.90;;;;;;5032083;28;20321;-88
2021/12/16 12:21:37;;;;;;;30.77;11.73;;;10.30;99.90;;;;;;5031922;28;20199;-87
2021/12/16 12:24:09;;;;;;;30.27;12.17;;;10.30;99.90;;;;;;5031793;28;20198;-88
2021/12/16 12:26:39;;;;;;;23.60;12.90;;;10.30;99.90;;;;;;5030746;28;20206;-87
2021/12/16 12:29:11;;;;;;;25.93;12.40;;;10.40;99.90;;;;;;5035681;28;20226;-89
2021/12/16 12:31:42;;;;;;;25.10;12.83;;;10.40;99.90;;;;;;5051452;28;20202;-87
2021/12/16 12:34:09;;;;;;;20.73;11.20;;;10.40;99.90;;;;;;5052374;28;20201;-88
2021/12/16 12:36:37;;;;;;;19.37;11.37;;;10.50;99.90;;;;;;5051351;28;20213;-86
2021/12/16 12:39:08;;;;;;;23.40;11.30;;;10.50;99.90;;;;;;5052381;28;20208;-88
2021/12/16 12:41:35;;;;;;;15.80;9.97;;;10.40;99.90;;;;;;5052275;28;20202;-88
2021/12/16 12:44:04;;;;;;;16.17;10.07;;;10.40;99.90;;;;;;5037025;28;20218;-89
2021/12/16 12:46:35;;;;;;;17.30;8.93;;;10.40;99.90;;;;;;5032279;28;20198;-90
2021/12/16 12:49:06;;;;;;;13.63;8.77;;;10.40;99.90;;;;;;5032085;28;20238;-90
2021/12/16 12:51:39;;;;;;;25.43;10.73;;;10.40;99.90;;;;;;5032457;28;20206;-91
2021/12/16 12:54:19;;;;;;;26.90;13.33;;;10.40;99.90;;;;;;5032754;28;20197;-90
2021/12/16 12:56:47;;;;;;;20.37;12.40;;;10.50;99.90;;;;;;5032717;28;20634;-92
2021/12/16 12:59:16;;;;;;;25.37;12.80;;;10.50;99.90;;;;;;5032497;28;20218;-90
2021/12/16 13:01:48;;;;;;;23.63;11.77;;;10.50;99.90;;;;;;5032076;28;20214;-89
2021/12/16 13:04:20;;;;;;;24.37;12.83;;;10.50;99.90;;;;;;5032612;28;20194;-90
2021/12/16 13:06:51;;;;;;;24.70;14.03;;;10.50;99.90;;;;;;5032223;28;20598;-90
2021/12/16 13:09:27;;;;;;;21.60;12.67;;;10.60;99.90;;;;;;5032220;28;20273;-87
2021/12/16 13:11:54;;;;;;;28.20;13.13;;;10.60;99.90;;;;;;5032596;28;20286;-88
2021/12/16 13:14:28;;;;;;;21.53;13.10;;;10.60;99.90;;;;;;5032778;28;20209;-91
2021/12/16 13:17:31;;;;;;;23.13;12.83;;;10.60;99.90;;;;;;5032420;28;20210;-90
2021/12/16 13:28:36;;;;;;;22.20;10.93;;;10.50;99.90;;;;;;5047224;28;20228;-89
2021/12/16 13:31:08;;;;;;;18.07;12.03;;;10.50;99.90;;;;;;5051127;28;20222;-89
2021/12/16 13:33:42;;;;;;;20.80;11.13;;;10.50;99.90;;;;;;5038415;28;20206;-90
2021/12/16 13:36:17;;;;;;;20.77;11.57;;;10.50;99.90;;;;;;5043620;28;20213;-89
2021/12/16 13:38:48;;;;;;;17.77;11.00;;;10.50;99.90;;;;;;5051982;28;20484;-89
2021/12/16 13:41:18;;;;;;;23.50;12.70;;;10.50;99.90;;;;;;5052552;28;20238;-88
2021/12/16 13:43:58;;;;;;;22.43;11.00;;;10.50;99.90;;;;;;5051158;28;20198;-89
2021/12/16 13:46:36;;;;;;;21.30;11.87;;;10.50;99.90;;;;;;5030366;28;20633;-90
2021/12/16 13:58:25;;;;;;;19.83;9.20;;;10.40;99.90;;;;;;5025641;28;20544;-89
2021/12/16 14:01:13;;;;;;;17.67;10.03;;;10.40;99.90;;;;;;5029679;28;20203;-89
2021/12/16 14:03:48;;;;;;;17.03;9.23;;;10.40;99.90;;;;;;5029625;28;20199;-89
2021/12/16 14:06:36;;;;;;;19.20;9.73;;;10.40;99.90;;;;;;5036236;28;20292;-90
2021/12/16 14:09:14;;;;;;;19.07;10.27;;;10.30;99.90;;;;;;5049544;28;20233;-88
2021/12/16 14:13:04;;;;;;;21.73;11.00;;;10.30;99.90;;;;;;5049776;28;20231;-87
2021/12/16 14:15:11;;;;;;;18.93;11.00;;;10.30;99.90;;;;;;5030351;28;20245;-87
2021/12/16 14:17:57;;;;;;;18.57;11.43;;;10.20;99.90;;;;;;5030094;28;20202;-88
2021/12/16 14:23:26;;;;;;;24.23;11.27;;;10.20;99.90;;;;;;5050551;28;20193;-87
2021/12/16 14:26:14;;;;;;;23.53;11.83;;;10.20;99.90;;;;;;5049190;28;20559;-86
2021/12/16 14:42:41;;;;;;;23.17;11.87;;;10.00;99.90;;;;;;5053535;28;20841;-87
2021/12/16 14:45:33;;;;;;;22.40;10.93;;;9.90;99.90;;;;;;5032776;28;20213;-87
2021/12/16 14:48:20;;;;;;;21.03;10.97;;;10.00;99.90;;;;;;5031966;28;20214;-86
2021/12/16 14:50:52;;;;;;;24.37;12.10;;;10.00;99.90;;;;;;5037918;28;20305;-86
2021/12/16 14:53:26;;;;;;;21.13;13.07;;;10.00;99.90;;;;;;5055025;28;20190;-87
2021/12/16 14:55:57;;;;;;;27.13;18.03;;;10.00;99.90;;;;;;5054657;28;20198;-87
2021/12/16 14:58:25;;;;;;;22.87;16.70;;;9.90;99.90;;;;;;5053209;28;20198;-87
2021/12/16 15:00:55;;;;;;;24.93;17.03;;;9.90;99.90;;;;;;5053861;28;20598;-87
2021/12/16 15:03:26;;;;;;;31.70;18.53;;;9.90;99.90;;;;;;5053016;28;20212;-87
2021/12/16 15:05:56;;;;;;;26.20;17.70;;;9.90;99.90;;;;;;5052687;28;20653;-87
2021/12/16 15:08:34;;;;;;;30.53;16.60;;;9.80;99.90;;;;;;5052313;28;20297;-85
2021/12/16 15:11:05;;;;;;;22.40;14.00;;;9.90;99.90;;;;;;5052994;28;20320;-86
2021/12/16 15:13:37;;;;;;;18.07;11.67;;;9.90;99.90;;;;;;5053174;28;20186;-87
2021/12/16 15:16:21;;;;;;;24.93;11.27;;;9.80;99.90;;;;;;5053675;28;20205;-86
2021/12/16 15:36:16;;;;;;;20.10;12.63;;;9.50;99.90;;;;;;4997715;28;20297;-85